createdAt,value
2022-08-26T00:02:26.509Z,75.30
2022-08-26T00:04:55.307Z,76.20
2022-08-26T00:07:23.623Z,76.20
2022-08-26T00:09:54.346Z,76.60
2022-08-26T00:12:34.358Z,77.20
2022-08-26T00:15:08.579Z,70.80
2022-08-26T00:17:37.271Z,67.00
2022-08-26T00:20:09.991Z,65.00
2022-08-26T00:22:39.612Z,63.20
2022-08-26T00:25:09.400Z,65.80
2022-08-26T00:27:38.612Z,68.70
2022-08-26T00:30:10.852Z,70.30
2022-08-26T00:32:39.214Z,71.60
2022-08-26T00:35:08.977Z,72.50
2022-08-26T00:37:37.375Z,73.50
2022-08-26T00:40:11.733Z,74.10
2022-08-26T00:42:40.198Z,75.10
2022-08-26T00:45:15.154Z,75.70
2022-08-26T00:47:56.718Z,76.10
2022-08-26T00:50:30.241Z,76.90
2022-08-26T00:53:02.610Z,77.20
2022-08-26T00:55:38.118Z,73.20
2022-08-26T00:58:07.992Z,67.90
2022-08-26T01:00:36.595Z,65.60
2022-08-26T01:03:05.432Z,64.20
2022-08-26T01:05:36.091Z,63.90
2022-08-26T01:08:04.716Z,68.10
2022-08-26T01:10:33.057Z,70.20
2022-08-26T01:13:07.670Z,71.50
2022-08-26T01:15:42.094Z,72.70
2022-08-26T01:18:12.115Z,73.60
2022-08-26T01:20:40.376Z,74.40
2022-08-26T01:23:11.097Z,75.20
2022-08-26T01:25:51.222Z,75.80
2022-08-26T01:28:32.027Z,76.20
2022-08-26T01:31:01.282Z,76.80
2022-08-26T01:33:42.056Z,77.00
2022-08-26T01:36:12.636Z,72.40
2022-08-26T01:38:42.200Z,67.60
2022-08-26T01:41:19.726Z,65.30
2022-08-26T01:43:58.005Z,63.60
2022-08-26T01:46:28.869Z,63.00
2022-08-26T01:49:01.798Z,66.80
2022-08-26T01:51:31.063Z,69.40
2022-08-26T01:53:59.557Z,70.80
2022-08-26T01:56:33.323Z,71.80
2022-08-26T01:59:15.624Z,72.70
2022-08-26T02:01:45.692Z,73.70
2022-08-26T02:04:21.764Z,74.50
2022-08-26T02:06:50.686Z,75.20
2022-08-26T02:09:20.438Z,75.90
2022-08-26T02:11:51.166Z,76.10
2022-08-26T02:14:26.898Z,77.10
2022-08-26T02:16:56.188Z,77.10
2022-08-26T02:19:29.944Z,72.00
2022-08-26T02:22:11.420Z,67.70
2022-08-26T02:24:52.764Z,65.70
2022-08-26T02:27:32.352Z,63.70
2022-08-26T02:30:24.721Z,64.00
2022-08-26T02:32:54.640Z,68.70
2022-08-26T02:35:24.704Z,70.30
2022-08-26T02:37:53.529Z,71.50
2022-08-26T02:40:26.521Z,72.50
2022-08-26T02:42:55.956Z,73.50
2022-08-26T02:45:26.618Z,74.30
2022-08-26T02:47:55.635Z,75.00
2022-08-26T02:50:26.429Z,75.70
2022-08-26T02:52:55.032Z,76.10
2022-08-26T02:55:24.742Z,76.50
2022-08-26T02:57:53.337Z,76.90
2022-08-26T03:00:22.062Z,75.60
2022-08-26T03:02:52.046Z,68.90
2022-08-26T03:05:20.514Z,66.50
2022-08-26T03:07:49.946Z,64.20
2022-08-26T03:10:19.259Z,64.90
2022-08-26T03:12:47.579Z,69.10
2022-08-26T03:15:18.421Z,70.70
2022-08-26T03:17:50.404Z,72.10
2022-08-26T03:20:19.307Z,72.90
2022-08-26T03:22:47.283Z,73.70
2022-08-26T03:25:17.761Z,74.50
2022-08-26T03:27:46.246Z,75.20
2022-08-26T03:30:16.227Z,75.80
2022-08-26T03:32:44.610Z,76.30
2022-08-26T03:35:13.592Z,76.80
2022-08-26T03:37:42.441Z,77.20
2022-08-26T03:40:11.855Z,77.60
2022-08-26T03:42:41.459Z,70.80
2022-08-26T03:45:15.923Z,68.00
2022-08-26T03:47:44.601Z,65.20
2022-08-26T03:50:13.674Z,63.80
2022-08-26T03:52:44.094Z,63.70
2022-08-26T03:55:12.843Z,67.50
2022-08-26T03:57:43.044Z,69.70
2022-08-26T04:00:15.221Z,71.00
2022-08-26T04:02:48.418Z,72.10
2022-08-26T04:05:18.784Z,72.90
2022-08-26T04:07:48.614Z,73.80
2022-08-26T04:10:19.398Z,74.50
2022-08-26T04:12:48.928Z,75.40
2022-08-26T04:15:18.164Z,75.80
2022-08-26T04:17:47.084Z,76.30
2022-08-26T04:20:15.548Z,76.70
2022-08-26T04:22:47.878Z,77.20
2022-08-26T04:25:16.141Z,77.50
2022-08-26T04:27:44.432Z,71.20
2022-08-26T04:30:13.202Z,67.70
2022-08-26T04:32:41.415Z,65.90
2022-08-26T04:35:10.359Z,63.90
2022-08-26T04:37:39.329Z,67.00
2022-08-26T04:40:12.011Z,70.10
2022-08-26T04:42:40.376Z,71.20
2022-08-26T04:45:10.356Z,72.40
2022-08-26T04:47:40.026Z,73.20
2022-08-26T04:50:09.151Z,74.00
2022-08-26T04:52:39.450Z,74.80
2022-08-26T04:55:08.445Z,75.50
2022-08-26T04:57:37.409Z,76.10
2022-08-26T05:00:07.364Z,76.60
2022-08-26T05:02:35.703Z,77.20
2022-08-26T05:05:04.507Z,77.50
2022-08-26T05:07:32.859Z,77.70
2022-08-26T05:10:01.242Z,74.60
2022-08-26T05:12:30.895Z,68.80
2022-08-26T05:14:59.306Z,66.40
2022-08-26T05:17:27.571Z,64.70
2022-08-26T05:19:55.865Z,66.50
2022-08-26T05:22:24.052Z,70.10
2022-08-26T05:24:53.559Z,71.50
2022-08-26T05:27:22.504Z,72.70
2022-08-26T05:29:54.447Z,73.80
2022-08-26T05:32:23.069Z,74.60
2022-08-26T05:34:55.411Z,75.40
2022-08-26T05:37:23.840Z,76.10
2022-08-26T05:39:52.223Z,76.70
2022-08-26T05:42:20.626Z,77.40
2022-08-26T05:44:56.007Z,77.40
2022-08-26T05:47:25.691Z,77.90
2022-08-26T05:49:54.294Z,78.70
2022-08-26T05:52:25.836Z,78.10
2022-08-26T05:54:54.490Z,70.30
2022-08-26T05:57:23.226Z,67.40
2022-08-26T05:59:52.448Z,65.60
2022-08-26T06:02:21.016Z,65.70
2022-08-26T06:04:49.588Z,70.10
2022-08-26T06:07:17.823Z,71.90
2022-08-26T06:09:46.336Z,73.10
2022-08-26T06:12:14.585Z,74.00
2022-08-26T06:14:43.423Z,74.70
2022-08-26T06:17:13.062Z,75.40
2022-08-26T06:19:41.387Z,76.10
2022-08-26T06:22:09.656Z,76.70
2022-08-26T06:24:37.980Z,77.20
2022-08-26T06:27:07.631Z,77.60
2022-08-26T06:29:37.580Z,78.00
2022-08-26T06:32:06.186Z,78.50
2022-08-26T06:34:34.365Z,78.60
2022-08-26T06:37:03.473Z,74.10
2022-08-26T06:39:32.353Z,69.00
2022-08-26T06:42:00.586Z,66.80
2022-08-26T06:44:29.086Z,65.70
2022-08-26T06:46:57.300Z,69.90
2022-08-26T06:49:25.759Z,72.30
2022-08-26T06:51:57.281Z,73.10
2022-08-26T06:54:27.136Z,74.10
2022-08-26T06:56:55.368Z,75.10
2022-08-26T06:59:23.976Z,76.50
2022-08-26T07:01:52.370Z,77.70
2022-08-26T07:04:23.029Z,78.80
2022-08-26T07:06:54.535Z,79.50
2022-08-26T07:09:25.786Z,80.20
2022-08-26T07:11:54.888Z,80.70
2022-08-26T07:14:23.061Z,80.90
2022-08-26T07:16:52.776Z,76.00
2022-08-26T07:19:29.825Z,71.10
2022-08-26T07:22:04.036Z,68.70
2022-08-26T07:24:35.638Z,66.80
2022-08-26T07:27:08.795Z,67.50
2022-08-26T07:29:39.066Z,71.70
2022-08-26T07:32:08.696Z,73.80
2022-08-26T07:34:42.019Z,75.20
2022-08-26T07:37:10.834Z,75.90
2022-08-26T07:39:40.375Z,76.60
2022-08-26T07:42:09.960Z,77.20
2022-08-26T07:44:38.610Z,77.80
2022-08-26T07:47:24.820Z,78.40
2022-08-26T07:49:56.647Z,78.80
2022-08-26T07:52:27.534Z,79.20
2022-08-26T07:55:00.449Z,79.80
2022-08-26T07:57:29.991Z,80.30
2022-08-26T07:59:59.182Z,80.60
2022-08-26T08:02:28.870Z,73.40
2022-08-26T08:04:58.486Z,70.00
2022-08-26T08:07:38.355Z,68.20
2022-08-26T08:10:22.824Z,66.10
2022-08-26T08:12:53.779Z,69.40
2022-08-26T08:15:23.930Z,72.60
2022-08-26T08:17:52.566Z,74.10
2022-08-26T08:20:22.098Z,75.70
2022-08-26T08:22:51.977Z,77.00
2022-08-26T08:25:23.594Z,78.00
2022-08-26T08:27:52.124Z,78.50
2022-08-26T08:30:23.114Z,79.10
2022-08-26T08:32:53.050Z,79.40
2022-08-26T08:35:23.377Z,80.20
2022-08-26T08:37:51.908Z,80.70
2022-08-26T08:40:21.007Z,81.00
2022-08-26T08:42:59.995Z,81.00
2022-08-26T08:45:36.576Z,73.60
2022-08-26T08:48:27.292Z,70.30
2022-08-26T08:50:58.312Z,67.90
2022-08-26T08:53:37.785Z,66.80
2022-08-26T08:56:37.677Z,71.00
2022-08-26T08:59:14.252Z,73.40
2022-08-26T09:02:13.074Z,74.50
2022-08-26T09:05:15.018Z,75.80
2022-08-26T09:08:11.182Z,76.60
2022-08-26T09:10:43.762Z,77.90
2022-08-26T09:13:16.745Z,79.20
2022-08-26T09:15:54.679Z,80.10
2022-08-26T09:18:41.631Z,80.60
2022-08-26T09:21:16.610Z,81.00
2022-08-26T09:23:49.477Z,75.20
2022-08-26T09:26:30.566Z,71.40
2022-08-26T09:29:05.434Z,68.60
2022-08-26T09:31:36.132Z,66.90
2022-08-26T09:34:18.452Z,68.70
2022-08-26T09:36:53.427Z,72.30
2022-08-26T09:39:25.292Z,73.90
2022-08-26T09:42:16.857Z,74.90
2022-08-26T09:44:55.957Z,75.90
2022-08-26T09:47:32.118Z,76.90
2022-08-26T09:50:02.268Z,77.60
2022-08-26T09:52:30.793Z,78.30
2022-08-26T09:55:15.879Z,78.90
2022-08-26T09:57:55.934Z,79.50
2022-08-26T10:00:38.559Z,80.00
2022-08-26T10:03:23.576Z,80.40
2022-08-26T10:06:05.457Z,73.40
2022-08-26T10:08:41.672Z,69.80
2022-08-26T10:11:45.268Z,67.60
2022-08-26T10:14:22.439Z,65.60
2022-08-26T10:16:53.919Z,64.30
2022-08-26T10:19:55.766Z,68.50
2022-08-26T10:22:25.888Z,71.10
2022-08-26T10:25:03.856Z,72.70
2022-08-26T10:27:38.451Z,73.70
2022-08-26T10:30:23.694Z,74.70
2022-08-26T10:32:58.056Z,75.60
2022-08-26T10:35:26.418Z,76.60
2022-08-26T10:37:58.627Z,77.30
2022-08-26T10:40:54.054Z,77.90
2022-08-26T10:43:30.210Z,78.50
2022-08-26T10:46:13.491Z,79.00
2022-08-26T10:49:03.225Z,72.30
2022-08-26T10:51:39.456Z,68.80
2022-08-26T10:54:38.807Z,66.40
2022-08-26T10:57:34.523Z,64.60
2022-08-26T11:00:12.406Z,66.00
2022-08-26T11:02:46.942Z,70.40
2022-08-26T11:05:24.674Z,72.20
2022-08-26T11:08:21.322Z,73.30
2022-08-26T11:10:52.580Z,74.60
2022-08-26T11:13:41.678Z,75.60
2022-08-26T11:16:11.305Z,76.40
2022-08-26T11:18:42.519Z,77.40
2022-08-26T11:21:50.857Z,77.90
2022-08-26T11:24:37.611Z,78.50
2022-08-26T11:27:08.474Z,73.60
2022-08-26T11:30:13.606Z,69.30
2022-08-26T11:32:42.007Z,67.00
2022-08-26T11:35:14.452Z,65.00
2022-08-26T11:37:51.271Z,63.50
2022-08-26T11:40:25.494Z,62.30
2022-08-26T11:43:06.878Z,64.30
2022-08-26T11:45:38.840Z,68.20
2022-08-26T11:48:20.968Z,70.30
2022-08-26T11:51:00.243Z,71.80
2022-08-26T11:53:30.065Z,73.50
2022-08-26T11:56:02.428Z,74.30
2022-08-26T11:58:31.512Z,75.30
2022-08-26T12:01:01.313Z,75.90
2022-08-26T12:03:54.603Z,76.40
2022-08-26T12:06:43.320Z,77.40
2022-08-26T12:09:30.494Z,77.60
2022-08-26T12:12:22.478Z,70.50
2022-08-26T12:15:25.105Z,67.50
2022-08-26T12:17:54.590Z,65.80
2022-08-26T12:20:37.998Z,63.70
2022-08-26T12:23:06.418Z,62.30
2022-08-26T12:25:36.159Z,62.90
2022-08-26T12:28:06.131Z,66.60
2022-08-26T12:30:34.844Z,69.30
2022-08-26T12:33:22.681Z,70.60
2022-08-26T12:35:56.681Z,71.90
2022-08-26T12:38:27.440Z,73.20
2022-08-26T12:40:57.214Z,74.10
2022-08-26T12:43:41.373Z,74.90
2022-08-26T12:46:17.261Z,75.60
2022-08-26T12:48:49.715Z,76.40
2022-08-26T12:51:27.191Z,76.80
2022-08-26T12:53:55.762Z,70.40
2022-08-26T12:56:35.668Z,67.40
2022-08-26T12:59:10.255Z,65.30
2022-08-26T13:01:43.931Z,63.90
2022-08-26T13:04:42.215Z,62.20
2022-08-26T13:07:14.652Z,60.70
2022-08-26T13:09:43.123Z,59.70
2022-08-26T13:12:12.665Z,58.10
2022-08-26T13:14:41.030Z,61.00
2022-08-26T13:17:09.492Z,65.00
2022-08-26T13:19:37.798Z,67.00
2022-08-26T13:22:06.461Z,68.50
2022-08-26T13:24:43.068Z,70.00
2022-08-26T13:27:14.981Z,71.00
2022-08-26T13:29:43.390Z,72.20
2022-08-26T13:32:11.638Z,73.10
2022-08-26T13:34:40.110Z,74.00
2022-08-26T13:37:08.491Z,74.60
2022-08-26T13:39:36.786Z,67.90
2022-08-26T13:42:05.231Z,64.80
2022-08-26T13:44:33.505Z,63.10
2022-08-26T13:47:01.717Z,61.80
2022-08-26T13:49:29.863Z,60.20
2022-08-26T13:51:58.223Z,59.20
2022-08-26T13:54:26.472Z,58.10
2022-08-26T13:56:54.777Z,57.30
2022-08-26T13:59:23.011Z,57.10
2022-08-26T14:01:51.271Z,60.90
2022-08-26T14:04:27.063Z,64.40
2022-08-26T14:06:58.424Z,66.00
2022-08-26T14:09:26.961Z,67.90
2022-08-26T14:11:55.349Z,69.10
2022-08-26T14:14:24.167Z,70.10
2022-08-26T14:16:59.394Z,71.10
2022-08-26T14:19:30.367Z,71.10
2022-08-26T14:22:05.763Z,69.90
2022-08-26T14:24:34.163Z,69.40
2022-08-26T14:27:02.671Z,69.10
2022-08-26T14:29:31.093Z,68.90
2022-08-26T14:32:08.506Z,69.50
2022-08-26T14:34:36.851Z,70.50
2022-08-26T14:37:07.806Z,65.20
2022-08-26T14:39:37.150Z,63.10
2022-08-26T14:42:06.332Z,61.50
2022-08-26T14:47:19.122Z,61.60
2022-08-26T14:49:47.653Z,65.10
2022-08-26T14:52:18.935Z,66.70
2022-08-26T14:54:47.871Z,66.40
2022-08-26T14:57:23.609Z,66.00
2022-08-26T14:59:52.267Z,66.00
2022-08-26T15:02:32.429Z,66.00
2022-08-26T15:05:03.378Z,66.20
2022-08-26T15:07:34.870Z,66.50
2022-08-26T15:10:11.665Z,66.30
2022-08-26T15:12:40.490Z,66.60
2022-08-26T15:15:18.713Z,66.80
2022-08-26T15:17:49.842Z,66.90
2022-08-26T15:20:18.522Z,67.10
2022-08-26T15:22:47.427Z,67.30
2022-08-26T15:25:15.966Z,67.40
2022-08-26T15:27:47.624Z,67.80
2022-08-26T15:30:19.055Z,68.40
2022-08-26T15:32:47.791Z,68.00
2022-08-26T15:35:15.958Z,68.10
2022-08-26T15:37:44.578Z,68.20
2022-08-26T15:40:13.040Z,68.20
2022-08-26T15:42:42.181Z,68.50
2022-08-26T15:45:11.090Z,68.60
2022-08-26T15:48:00.858Z,68.70
2022-08-26T15:50:31.327Z,69.30
2022-08-26T18:07:07.616Z,74.70
2022-08-26T18:09:36.520Z,65.50
2022-08-26T18:12:05.283Z,64.00
2022-08-26T18:14:34.806Z,62.80
2022-08-26T18:17:03.666Z,61.50
2022-08-26T18:19:31.953Z,60.30
2022-08-26T18:22:00.330Z,59.10
2022-08-26T18:24:28.690Z,57.90
2022-08-26T18:26:57.357Z,56.90
2022-08-26T18:29:25.324Z,56.00
2022-08-26T18:31:53.749Z,55.30
2022-08-26T18:34:21.970Z,54.50
2022-08-26T18:36:53.308Z,54.00
2022-08-26T18:39:22.108Z,53.20
2022-08-26T18:41:52.476Z,52.50
2022-08-26T18:44:22.135Z,51.70
2022-08-26T18:46:51.531Z,51.30
2022-08-26T18:49:21.429Z,50.90
2022-08-26T18:51:49.901Z,50.30
2022-08-26T18:56:51.792Z,49.20
2022-08-26T18:59:19.921Z,48.80
2022-08-26T19:01:58.894Z,48.50
2022-08-26T19:04:27.611Z,48.20
2022-08-26T19:06:55.989Z,48.30
2022-08-26T19:09:24.527Z,47.40
2022-08-26T19:11:53.268Z,47.30
2022-08-26T19:14:21.690Z,46.90
2022-08-26T19:16:51.616Z,46.40
2022-08-26T19:19:21.803Z,46.20
2022-08-26T19:21:50.069Z,45.80
2022-08-26T19:24:19.272Z,46.00
2022-08-26T19:26:57.788Z,45.80
2022-08-26T19:29:29.658Z,45.30
2022-08-26T19:31:57.894Z,45.10
2022-08-26T19:34:26.526Z,44.70
2022-08-26T19:36:55.003Z,44.40
2022-08-26T19:39:23.646Z,44.50
2022-08-26T19:41:52.097Z,44.20
2022-08-26T19:44:22.296Z,44.20
2022-08-26T19:46:50.527Z,45.90
2022-08-26T19:49:18.741Z,50.20
2022-08-26T19:51:47.070Z,53.20
2022-08-26T19:54:15.302Z,55.20
2022-08-26T19:56:45.004Z,57.30
2022-08-26T19:59:16.250Z,59.00
2022-08-26T20:01:44.960Z,60.50
2022-08-26T20:04:12.994Z,62.00
2022-08-26T20:06:41.286Z,62.90
2022-08-26T20:09:09.868Z,64.20
2022-08-26T20:11:38.273Z,58.90
2022-08-26T20:14:06.666Z,56.00
2022-08-26T20:16:34.909Z,54.70
2022-08-26T20:19:03.199Z,53.30
2022-08-26T20:21:34.409Z,52.30
2022-08-26T20:24:12.095Z,51.90
2022-08-26T20:26:43.396Z,50.60
2022-08-26T20:29:14.183Z,49.80
2022-08-26T20:31:42.699Z,49.20
2022-08-26T20:34:11.619Z,48.60
2022-08-26T20:36:41.108Z,48.00
2022-08-26T20:39:09.661Z,47.60
2022-08-26T20:41:38.306Z,47.20
2022-08-26T20:44:07.112Z,46.90
2022-08-26T20:46:35.566Z,46.40
2022-08-26T20:49:05.974Z,46.70
2022-08-26T20:51:36.856Z,46.20
2022-08-26T20:54:06.904Z,46.40
2022-08-26T20:56:36.002Z,49.00
2022-08-26T20:59:06.456Z,52.10
2022-08-26T21:01:42.147Z,55.00
2022-08-26T21:04:19.152Z,57.00
2022-08-26T21:06:52.392Z,58.70
2022-08-26T21:09:23.140Z,60.00
2022-08-26T21:11:51.956Z,61.10
2022-08-26T21:14:20.000Z,61.90
2022-08-26T21:16:48.885Z,58.00
2022-08-26T21:19:19.157Z,54.90
2022-08-26T21:21:48.912Z,55.40
2022-08-26T21:24:17.858Z,60.00
2022-08-26T21:26:46.196Z,62.30
2022-08-26T21:29:14.633Z,64.00
2022-08-26T21:31:46.521Z,65.00
2022-08-26T21:34:17.959Z,65.70
2022-08-26T21:36:47.569Z,60.70
2022-08-26T21:39:15.846Z,57.50
2022-08-26T21:41:45.639Z,56.40
2022-08-26T21:44:15.956Z,54.70
2022-08-26T21:46:46.035Z,53.30
2022-08-26T21:49:16.096Z,52.30
2022-08-26T21:51:47.599Z,51.30
2022-08-26T21:54:16.492Z,50.20
2022-08-26T21:56:46.847Z,49.60
2022-08-26T21:59:19.717Z,49.10
2022-08-26T22:01:49.461Z,48.20
2022-08-26T22:04:18.604Z,48.80
2022-08-26T22:06:49.933Z,52.80
2022-08-26T22:09:21.018Z,55.60
2022-08-26T22:11:50.117Z,57.70
2022-08-26T22:14:20.526Z,59.30
2022-08-26T22:16:50.732Z,60.60
2022-08-26T22:19:20.411Z,61.90
2022-08-26T22:21:53.259Z,63.20
2022-08-26T22:24:23.802Z,64.40
2022-08-26T22:26:52.814Z,65.00
2022-08-26T22:29:21.108Z,59.10
2022-08-26T22:31:49.449Z,56.20
2022-08-26T22:34:17.995Z,54.60
2022-08-26T22:36:51.128Z,53.60
2022-08-26T22:39:23.669Z,52.20
2022-08-26T22:41:53.762Z,51.30
2022-08-26T22:44:22.495Z,50.20
2022-08-26T22:46:54.353Z,49.40
2022-08-26T22:49:23.391Z,48.90
2022-08-26T22:51:51.695Z,51.40
2022-08-26T22:54:20.857Z,56.10
2022-08-26T22:56:49.097Z,58.80
2022-08-26T22:59:17.476Z,60.80
2022-08-26T23:01:46.307Z,61.80
2022-08-26T23:04:14.392Z,63.10
2022-08-26T23:06:47.286Z,64.60
2022-08-26T23:09:18.497Z,65.50
2022-08-26T23:11:48.764Z,65.40
2022-08-26T23:14:19.168Z,59.40
2022-08-26T23:16:47.805Z,57.10
2022-08-26T23:19:17.822Z,55.70
2022-08-26T23:21:46.865Z,54.30
2022-08-26T23:24:15.829Z,53.00
2022-08-26T23:26:45.203Z,52.20
2022-08-26T23:29:14.724Z,51.20
2022-08-26T23:31:43.520Z,50.30
2022-08-26T23:34:12.419Z,49.60
2022-08-26T23:36:40.728Z,49.40
2022-08-26T23:39:09.547Z,48.40
2022-08-26T23:41:38.206Z,47.70
2022-08-26T23:44:06.520Z,47.30
2022-08-26T23:46:35.752Z,46.70
2022-08-26T23:49:05.186Z,46.40
2022-08-26T23:51:33.408Z,49.40
2022-08-26T23:54:01.687Z,52.70
2022-08-26T23:56:29.907Z,55.40
2022-08-26T23:58:58.349Z,57.20
